createdAt,value
2022-10-10T00:02:06.246Z,11.25
2022-10-10T00:04:32.886Z,11.20
2022-10-10T00:06:59.490Z,10.57
2022-10-10T00:09:26.110Z,11.02
2022-10-10T00:11:52.716Z,11.73
2022-10-10T00:14:19.378Z,10.50
2022-10-10T00:16:46.016Z,12.27
2022-10-10T00:19:12.709Z,11.75
2022-10-10T00:21:39.449Z,10.10
2022-10-10T00:24:06.461Z,10.85
2022-10-10T00:26:33.138Z,9.73
2022-10-10T00:28:59.792Z,10.00
2022-10-10T00:31:26.490Z,10.93
2022-10-10T00:33:53.098Z,12.65
2022-10-10T00:36:21.278Z,11.02
2022-10-10T00:38:48.335Z,11.60
2022-10-10T00:41:14.903Z,13.20
2022-10-10T00:43:41.547Z,9.48
2022-10-10T00:46:08.407Z,9.18
2022-10-10T00:48:43.156Z,10.60
2022-10-10T00:51:13.807Z,9.30
2022-10-10T00:53:50.355Z,10.15
2022-10-10T00:56:20.802Z,9.93
2022-10-10T00:58:51.365Z,10.18
2022-10-10T01:01:18.049Z,17.45
2022-10-10T01:03:45.200Z,9.55
2022-10-10T01:06:11.937Z,10.45
2022-10-10T01:08:38.916Z,9.57
2022-10-10T01:11:14.445Z,13.45
2022-10-10T01:14:07.633Z,11.48
2022-10-10T01:16:56.862Z,10.38
2022-10-10T01:19:54.216Z,10.52
2022-10-10T01:22:38.771Z,11.43
2022-10-10T01:25:23.032Z,11.10
2022-10-10T01:27:57.388Z,8.93
2022-10-10T01:30:25.388Z,13.15
2022-10-10T01:33:01.108Z,9.48
2022-10-10T01:36:14.909Z,9.10
2022-10-10T01:38:44.465Z,10.90
2022-10-10T01:41:19.827Z,10.38
2022-10-10T01:44:57.615Z,10.38
2022-10-10T01:47:24.616Z,8.65
2022-10-10T01:50:00.695Z,10.93
2022-10-10T01:52:50.315Z,9.43
2022-10-10T01:55:22.912Z,11.45
2022-10-10T01:57:52.204Z,10.07
2022-10-10T02:00:19.476Z,8.70
2022-10-10T02:03:02.409Z,10.25
2022-10-10T02:05:39.908Z,10.30
2022-10-10T02:08:25.595Z,9.63
2022-10-10T02:11:00.627Z,8.70
2022-10-10T02:13:51.388Z,8.65
2022-10-10T02:16:31.803Z,9.10
2022-10-10T02:19:00.055Z,10.90
2022-10-10T02:21:28.230Z,10.15
2022-10-10T02:23:59.653Z,8.23
2022-10-10T02:26:28.242Z,12.52
2022-10-10T02:29:03.373Z,9.30
2022-10-10T02:31:38.572Z,9.52
2022-10-10T02:34:13.313Z,8.57
2022-10-10T02:36:44.063Z,9.40
2022-10-10T02:39:12.667Z,10.25
2022-10-10T02:41:41.122Z,10.10
2022-10-10T02:44:07.827Z,11.13
2022-10-10T02:46:34.464Z,8.63
2022-10-10T02:49:02.149Z,9.50
2022-10-10T02:51:30.471Z,9.68
2022-10-10T02:53:57.259Z,9.90
2022-10-10T02:56:23.834Z,10.48
2022-10-10T02:58:50.417Z,9.95
2022-10-10T03:01:17.070Z,9.18
2022-10-10T03:03:44.146Z,7.95
2022-10-10T03:06:10.734Z,10.45
2022-10-10T03:08:38.787Z,8.40
2022-10-10T03:11:06.442Z,9.38
2022-10-10T03:13:33.275Z,9.27
2022-10-10T03:15:59.936Z,9.45
2022-10-10T03:18:26.608Z,10.48
2022-10-10T03:20:58.597Z,9.10
2022-10-10T03:23:25.676Z,8.20
2022-10-10T03:25:52.398Z,10.98
2022-10-10T03:28:19.133Z,8.65
2022-10-10T03:30:46.268Z,8.98
2022-10-10T03:33:13.024Z,9.55
2022-10-10T03:35:40.048Z,8.85
2022-10-10T03:38:07.245Z,8.63
2022-10-10T03:40:34.509Z,10.68
2022-10-10T03:43:01.139Z,15.32
2022-10-10T03:45:27.740Z,11.30
2022-10-10T03:47:54.355Z,15.82
2022-10-10T03:50:20.986Z,9.25
2022-10-10T03:52:47.723Z,12.57
2022-10-10T03:55:14.626Z,9.50
2022-10-10T03:57:41.212Z,10.85
2022-10-10T04:00:08.525Z,11.32
2022-10-10T04:02:35.115Z,9.43
2022-10-10T04:05:01.698Z,9.18
2022-10-10T04:07:28.382Z,8.98
2022-10-10T04:09:55.045Z,9.50
2022-10-10T04:12:21.650Z,8.85
2022-10-10T04:14:48.233Z,9.45
2022-10-10T04:17:14.916Z,9.52
2022-10-10T04:19:41.523Z,12.93
2022-10-10T04:22:11.143Z,11.25
2022-10-10T04:24:38.168Z,10.07
2022-10-10T04:27:04.757Z,12.82
2022-10-10T04:29:31.427Z,9.15
2022-10-10T04:31:58.140Z,8.85
2022-10-10T04:34:24.865Z,16.73
2022-10-10T04:36:51.443Z,9.00
2022-10-10T04:39:18.000Z,12.45
2022-10-10T04:41:45.663Z,8.80
2022-10-10T04:44:12.239Z,11.00
2022-10-10T04:46:38.857Z,10.25
2022-10-10T04:49:05.481Z,9.82
2022-10-10T04:51:32.900Z,9.63
2022-10-10T04:53:59.524Z,8.15
2022-10-10T04:56:26.718Z,10.88
2022-10-10T04:58:53.359Z,11.85
2022-10-10T05:01:20.089Z,11.52
2022-10-10T05:03:46.853Z,8.70
2022-10-10T05:06:13.421Z,10.55
2022-10-10T05:08:40.071Z,8.05
2022-10-10T05:11:06.720Z,9.32
2022-10-10T05:13:33.333Z,11.30
2022-10-10T05:16:00.782Z,15.13
2022-10-10T05:18:27.420Z,8.85
2022-10-10T05:20:54.023Z,9.82
2022-10-10T05:23:20.603Z,8.90
2022-10-10T05:25:51.222Z,8.45
2022-10-10T05:28:18.256Z,11.27
2022-10-10T05:30:45.013Z,14.05
2022-10-10T05:33:11.809Z,10.60
2022-10-10T05:35:38.391Z,13.38
2022-10-10T05:38:05.284Z,10.68
2022-10-10T05:40:31.865Z,12.00
2022-10-10T05:42:58.506Z,11.38
2022-10-10T05:45:25.361Z,10.48
2022-10-10T05:47:51.933Z,11.15
2022-10-10T05:50:34.069Z,12.23
2022-10-10T05:53:01.038Z,9.68
2022-10-10T05:55:27.803Z,14.52
2022-10-10T05:57:54.397Z,10.05
2022-10-10T06:00:21.177Z,12.48
2022-10-10T06:02:48.376Z,10.75
2022-10-10T06:05:15.329Z,8.00
2022-10-10T06:08:03.538Z,14.18
2022-10-10T06:10:28.603Z,9.32
2022-10-10T06:12:55.303Z,9.40
2022-10-10T06:15:22.122Z,9.25
2022-10-10T06:17:48.713Z,10.30
2022-10-10T06:20:15.370Z,15.00
2022-10-10T06:22:41.966Z,9.50
2022-10-10T06:25:23.884Z,9.57
2022-10-10T06:27:55.827Z,9.20
2022-10-10T06:30:22.431Z,9.25
2022-10-10T06:32:50.854Z,8.45
2022-10-10T06:35:19.729Z,9.80
2022-10-10T06:37:46.289Z,8.88
2022-10-10T06:40:12.910Z,9.05
2022-10-10T06:42:39.509Z,11.45
2022-10-10T06:45:06.618Z,8.88
2022-10-10T06:47:33.225Z,8.10
2022-10-10T06:49:59.911Z,8.63
2022-10-10T06:52:26.507Z,10.95
2022-10-10T06:54:53.172Z,8.98
2022-10-10T06:57:19.791Z,9.60
2022-10-10T06:59:46.391Z,9.57
2022-10-10T07:02:15.859Z,14.57
2022-10-10T07:04:42.444Z,10.27
2022-10-10T07:07:09.545Z,13.70
2022-10-10T07:09:36.160Z,10.05
2022-10-10T07:12:03.030Z,11.35
2022-10-10T07:14:29.689Z,10.48
2022-10-10T07:16:56.322Z,13.10
2022-10-10T07:19:24.848Z,10.10
2022-10-10T07:21:51.627Z,9.57
2022-10-10T07:24:18.250Z,9.70
2022-10-10T07:26:44.875Z,11.00
2022-10-10T07:29:11.514Z,11.87
2022-10-10T07:31:38.234Z,9.77
2022-10-10T07:34:06.181Z,10.68
2022-10-10T07:36:32.805Z,10.00
2022-10-10T07:38:59.439Z,11.03
2022-10-10T07:41:26.037Z,9.37
2022-10-10T07:43:56.540Z,10.57
2022-10-10T07:46:23.507Z,11.70
2022-10-10T07:48:50.154Z,9.70
2022-10-10T07:51:17.405Z,14.30
2022-10-10T07:53:44.554Z,10.70
2022-10-10T07:56:11.607Z,13.20
2022-10-10T07:58:38.805Z,12.77
2022-10-10T08:01:10.526Z,10.70
2022-10-10T08:03:37.615Z,13.53
2022-10-10T08:06:06.836Z,16.30
2022-10-10T08:08:35.097Z,12.07
2022-10-10T08:11:08.993Z,12.40
2022-10-10T08:13:37.291Z,11.60
2022-10-10T08:16:04.820Z,14.33
2022-10-10T08:18:31.494Z,11.90
2022-10-10T08:20:59.713Z,11.50
2022-10-10T08:23:26.748Z,15.65
2022-10-10T08:25:53.637Z,17.13
2022-10-10T08:28:20.853Z,11.73
2022-10-10T08:30:47.498Z,13.40
2022-10-10T08:33:14.149Z,15.70
2022-10-10T08:35:41.259Z,16.23
2022-10-10T08:38:08.871Z,12.57
2022-10-10T08:40:45.024Z,12.83
2022-10-10T08:43:21.509Z,13.57
2022-10-10T08:45:50.868Z,13.50
2022-10-10T08:48:23.379Z,11.20
2022-10-10T08:50:57.031Z,11.60
2022-10-10T08:53:45.988Z,13.77
2022-10-10T08:56:30.939Z,11.47
2022-10-10T08:59:15.957Z,13.07
2022-10-10T09:02:17.562Z,14.10
2022-10-10T09:04:32.431Z,15.10
2022-10-10T09:07:18.577Z,15.47
2022-10-10T09:10:08.686Z,14.87
2022-10-10T09:12:55.265Z,18.43
2022-10-10T09:15:35.086Z,16.77
2022-10-10T09:18:28.311Z,12.25
2022-10-10T09:21:19.411Z,11.77
2022-10-10T09:24:05.812Z,12.33
2022-10-10T09:26:46.517Z,13.93
2022-10-10T09:29:31.459Z,11.67
2022-10-10T09:32:23.999Z,9.37
2022-10-10T09:34:58.595Z,12.03
2022-10-10T09:37:46.922Z,14.57
2022-10-10T09:40:24.006Z,14.60
2022-10-10T09:42:50.815Z,14.07
2022-10-10T09:45:29.862Z,10.33
2022-10-10T09:47:56.892Z,15.03
2022-10-10T09:50:24.150Z,15.43
2022-10-10T09:52:52.500Z,15.70
2022-10-10T09:55:26.552Z,13.27
2022-10-10T09:57:56.609Z,18.88
2022-10-10T10:00:49.893Z,23.50
2022-10-10T10:03:21.760Z,15.55
2022-10-10T10:06:00.292Z,14.23
2022-10-10T10:08:33.401Z,14.20
2022-10-10T10:11:01.795Z,18.57
2022-10-10T10:13:34.499Z,12.03
2022-10-10T10:16:08.900Z,12.10
2022-10-10T10:18:41.539Z,23.07
2022-10-10T10:21:08.145Z,14.50
2022-10-10T10:23:56.311Z,16.23
2022-10-10T10:26:33.207Z,17.80
2022-10-10T10:28:59.862Z,16.45
2022-10-10T10:31:48.370Z,15.18
2022-10-10T10:34:37.382Z,14.10
2022-10-10T10:37:30.493Z,14.30
2022-10-10T10:40:17.586Z,20.00
2022-10-10T10:43:02.857Z,14.10
2022-10-10T10:45:38.687Z,24.00
2022-10-10T10:48:29.213Z,17.90
2022-10-10T10:51:07.223Z,14.67
2022-10-10T10:54:11.591Z,17.20
2022-10-10T10:56:52.816Z,14.70
2022-10-10T11:00:26.521Z,16.47
2022-10-10T11:03:14.870Z,14.80
2022-10-10T11:06:01.223Z,16.38
2022-10-10T11:09:06.925Z,15.40
2022-10-10T11:11:59.738Z,13.98
2022-10-10T11:14:48.056Z,15.47
2022-10-10T11:17:38.435Z,14.40
2022-10-10T11:20:16.407Z,17.53
2022-10-10T11:22:49.945Z,15.73
2022-10-10T11:25:28.298Z,16.40
2022-10-10T11:28:10.235Z,16.00
2022-10-10T11:30:44.295Z,16.17
2022-10-10T11:33:26.079Z,18.80
2022-10-10T11:36:19.305Z,17.50
2022-10-10T11:39:22.983Z,17.00
2022-10-10T11:42:06.228Z,15.50
2022-10-10T11:44:40.291Z,15.87
2022-10-10T11:47:25.927Z,17.20
2022-10-10T11:50:21.475Z,14.55
2022-10-10T11:53:19.932Z,12.40
2022-10-10T11:56:26.487Z,16.60
2022-10-10T11:59:01.983Z,13.50
2022-10-10T12:01:33.478Z,17.67
2022-10-10T12:04:00.045Z,16.17
2022-10-10T12:06:54.882Z,16.73
2022-10-10T12:09:31.147Z,18.95
2022-10-10T12:12:22.594Z,17.27
2022-10-10T12:14:54.218Z,15.90
2022-10-10T12:17:27.610Z,16.20
2022-10-10T12:19:54.231Z,15.60
2022-10-10T12:22:28.548Z,26.73
2022-10-10T12:25:24.693Z,17.08
2022-10-10T12:28:05.910Z,16.40
2022-10-10T12:30:32.801Z,18.42
2022-10-10T12:32:59.647Z,18.45
2022-10-10T12:35:33.061Z,17.43
2022-10-10T12:38:06.110Z,14.53
2022-10-10T12:40:33.902Z,16.97
2022-10-10T12:43:02.518Z,19.45
2022-10-10T12:45:29.098Z,14.47
2022-10-10T12:48:06.217Z,21.13
2022-10-10T12:50:41.697Z,14.98
2022-10-10T12:53:16.900Z,14.20
2022-10-10T12:55:45.283Z,17.10
2022-10-10T12:58:29.930Z,16.20
2022-10-10T13:00:59.693Z,12.40
2022-10-10T13:03:34.476Z,20.00
2022-10-10T13:06:24.008Z,12.15
2022-10-10T13:08:53.550Z,17.30
2022-10-10T13:11:20.316Z,14.00
2022-10-10T13:13:52.826Z,24.60
2022-10-10T13:16:22.480Z,17.83
2022-10-10T13:18:50.938Z,15.07
2022-10-10T13:21:29.740Z,12.57
2022-10-10T13:24:03.704Z,13.77
2022-10-10T13:26:40.231Z,14.67
2022-10-10T13:29:35.068Z,15.75
2022-10-10T13:32:08.338Z,14.70
2022-10-10T13:34:37.521Z,20.03
2022-10-10T13:37:06.061Z,17.00
2022-10-10T13:39:36.942Z,18.40
2022-10-10T13:42:05.964Z,14.90
2022-10-10T13:44:47.816Z,14.87
2022-10-10T13:47:45.370Z,16.90
2022-10-10T13:50:44.196Z,12.50
2022-10-10T13:53:31.987Z,12.20
2022-10-10T13:56:01.791Z,19.00
2022-10-10T13:58:31.828Z,13.20
2022-10-10T14:01:02.723Z,14.50
2022-10-10T14:03:31.161Z,13.10
2022-10-10T14:05:57.894Z,18.03
2022-10-10T14:08:33.278Z,17.40
2022-10-10T14:11:08.689Z,16.50
2022-10-10T14:13:37.960Z,15.80
2022-10-10T14:16:19.964Z,13.00
2022-10-10T14:18:47.151Z,12.20
2022-10-10T14:21:13.938Z,13.70
2022-10-10T14:23:40.901Z,17.10
2022-10-10T14:26:13.942Z,12.23
2022-10-10T14:28:41.033Z,16.27
2022-10-10T14:31:07.776Z,14.77
2022-10-10T14:33:34.933Z,12.63
2022-10-10T14:36:01.675Z,17.58
2022-10-10T14:38:28.363Z,16.33
2022-10-10T14:40:55.715Z,15.60
2022-10-10T14:43:23.579Z,14.90
2022-10-10T14:45:52.565Z,14.83
2022-10-10T14:48:19.874Z,14.30
2022-10-10T14:50:48.512Z,13.90
2022-10-10T14:53:15.757Z,43.27
2022-10-10T14:55:43.483Z,14.83
2022-10-10T14:58:15.438Z,16.27
2022-10-10T15:00:42.371Z,18.80
2022-10-10T15:03:11.362Z,13.13
2022-10-10T15:05:38.049Z,15.17
2022-10-10T15:08:04.867Z,20.60
2022-10-10T15:10:34.324Z,25.03
2022-10-10T15:13:02.005Z,18.33
2022-10-10T15:15:29.250Z,17.50
2022-10-10T15:17:58.104Z,20.53
2022-10-10T15:20:30.617Z,14.20
2022-10-10T15:23:06.245Z,33.80
2022-10-10T15:25:34.306Z,20.27
2022-10-10T15:28:04.669Z,15.80
2022-10-10T15:30:31.431Z,13.60
2022-10-10T15:32:58.221Z,15.70
2022-10-10T15:35:26.148Z,20.07
2022-10-10T15:37:52.878Z,15.57
2022-10-10T15:40:23.499Z,15.37
2022-10-10T15:42:50.988Z,18.63
2022-10-10T15:45:37.430Z,16.40
2022-10-10T15:48:05.528Z,19.60
2022-10-10T15:50:34.299Z,14.00
2022-10-10T15:53:00.990Z,15.60
2022-10-10T15:55:27.659Z,15.38
2022-10-10T15:57:54.299Z,19.03
2022-10-10T16:00:20.911Z,20.57
2022-10-10T16:02:47.622Z,16.77
2022-10-10T16:05:14.307Z,21.23
2022-10-10T16:07:47.560Z,17.35
2022-10-10T16:10:15.515Z,15.37
2022-10-10T16:12:42.366Z,18.13
2022-10-10T16:15:09.506Z,19.63
2022-10-10T16:17:36.093Z,13.93
2022-10-10T16:20:02.769Z,17.73
2022-10-10T16:22:29.417Z,17.53
2022-10-10T16:27:43.273Z,17.63
2022-10-10T16:30:10.784Z,18.00
2022-10-10T16:32:42.130Z,19.50
2022-10-10T16:35:10.232Z,27.10
2022-10-10T16:37:36.858Z,11.47
2022-10-10T16:40:04.240Z,21.27
2022-10-10T16:42:30.856Z,20.67
2022-10-10T16:44:57.456Z,17.47
2022-10-10T16:47:24.110Z,17.13
2022-10-10T16:49:50.803Z,20.23
2022-10-10T16:52:17.396Z,20.57
2022-10-10T16:54:43.971Z,20.90
2022-10-10T16:57:12.017Z,29.73
2022-10-10T16:59:38.845Z,21.63
2022-10-10T17:02:05.520Z,27.97
2022-10-10T17:04:32.539Z,15.03
2022-10-10T17:06:59.134Z,22.13
2022-10-10T17:09:25.835Z,19.47
2022-10-10T17:11:52.463Z,17.97
2022-10-10T17:14:19.356Z,17.93
2022-10-10T17:19:33.349Z,22.70
2022-10-10T17:21:59.990Z,20.27
2022-10-10T17:24:26.704Z,17.07
2022-10-10T17:26:53.403Z,22.00
2022-10-10T17:29:20.186Z,21.80
2022-10-10T17:31:47.181Z,25.90
2022-10-10T17:34:13.780Z,21.63
2022-10-10T17:36:40.547Z,54.40
2022-10-10T17:39:07.807Z,22.33
2022-10-10T17:41:34.717Z,25.97
2022-10-10T17:44:01.394Z,22.47
2022-10-10T17:46:36.268Z,17.60
2022-10-10T17:49:08.950Z,15.57
2022-10-10T17:51:36.941Z,18.67
2022-10-10T17:54:04.635Z,25.30
2022-10-10T17:56:31.572Z,25.77
2022-10-10T17:59:02.764Z,16.10
2022-10-10T18:01:32.950Z,21.67
2022-10-10T18:03:59.864Z,21.60
2022-10-10T18:06:26.771Z,17.43
2022-10-10T18:08:54.128Z,19.07
2022-10-10T18:11:26.646Z,19.63
2022-10-10T18:13:53.362Z,19.80
2022-10-10T18:16:22.242Z,21.90
2022-10-10T18:18:51.594Z,15.70
2022-10-10T18:21:20.260Z,24.57
2022-10-10T18:23:48.096Z,16.27
2022-10-10T18:26:19.057Z,18.03
2022-10-10T18:28:45.925Z,19.77
2022-10-10T18:31:14.764Z,17.87
2022-10-10T18:33:44.794Z,17.07
2022-10-10T18:36:14.204Z,18.00
2022-10-10T18:38:41.519Z,18.40
2022-10-10T18:41:11.244Z,19.17
2022-10-10T18:43:39.475Z,29.20
2022-10-10T18:46:07.936Z,23.37
2022-10-10T18:48:36.283Z,26.60
2022-10-10T18:51:05.774Z,15.90
2022-10-10T18:53:39.345Z,19.20
2022-10-10T18:56:06.525Z,28.95
2022-10-10T18:58:35.165Z,21.57
2022-10-10T19:01:13.451Z,24.57
2022-10-10T19:03:41.528Z,21.10
2022-10-10T19:06:11.122Z,19.33
2022-10-10T19:08:38.368Z,15.70
2022-10-10T19:11:06.965Z,23.92
2022-10-10T19:13:34.398Z,19.43
2022-10-10T19:16:07.545Z,20.30
2022-10-10T19:18:34.783Z,16.17
2022-10-10T19:21:04.128Z,27.85
2022-10-10T19:23:31.991Z,16.55
2022-10-10T19:26:03.658Z,18.53
2022-10-10T19:28:31.319Z,25.23
2022-10-10T19:30:58.091Z,21.53
2022-10-10T19:33:24.809Z,21.17
2022-10-10T19:35:52.457Z,18.23
2022-10-10T19:38:19.423Z,21.30
2022-10-10T19:40:47.590Z,17.37
2022-10-10T19:43:15.647Z,20.10
2022-10-10T19:45:52.848Z,19.43
2022-10-10T19:48:21.327Z,20.40
2022-10-10T19:50:48.160Z,15.33
2022-10-10T19:53:17.581Z,24.13
2022-10-10T19:55:47.315Z,22.80
2022-10-10T19:58:13.963Z,18.97
2022-10-10T20:00:40.539Z,24.03
2022-10-10T20:03:07.161Z,22.83
2022-10-10T20:05:33.785Z,23.93
2022-10-10T20:08:00.391Z,19.97
2022-10-10T20:10:27.024Z,23.83
2022-10-10T20:12:54.965Z,24.23
2022-10-10T20:15:21.645Z,20.50
2022-10-10T20:17:48.360Z,23.07
2022-10-10T20:20:15.000Z,25.97
2022-10-10T20:22:44.387Z,23.40
2022-10-10T20:25:11.636Z,23.97
2022-10-10T20:27:38.261Z,24.43
2022-10-10T20:30:06.013Z,26.40
2022-10-10T20:32:32.718Z,28.80
2022-10-10T20:35:00.637Z,28.87
2022-10-10T20:37:27.209Z,24.70
2022-10-10T20:39:53.791Z,26.27
2022-10-10T20:42:20.387Z,26.43
2022-10-10T20:44:49.039Z,23.80
2022-10-10T20:47:15.711Z,27.83
2022-10-10T20:49:42.326Z,31.10
2022-10-10T20:52:08.938Z,30.93
2022-10-10T20:54:36.442Z,36.60
2022-10-10T20:57:03.198Z,32.37
2022-10-10T20:59:29.951Z,34.00
2022-10-10T21:01:56.633Z,35.97
2022-10-10T21:04:23.421Z,36.73
2022-10-10T21:06:50.047Z,35.10
2022-10-10T21:09:16.808Z,33.47
2022-10-10T21:11:46.499Z,30.97
2022-10-10T21:14:15.419Z,36.70
2022-10-10T21:16:42.037Z,42.33
2022-10-10T21:19:10.347Z,33.57
2022-10-10T21:21:37.842Z,32.87
2022-10-10T21:24:07.274Z,31.40
2022-10-10T21:26:34.471Z,30.77
2022-10-10T21:29:01.243Z,21.87
2022-10-10T21:31:34.786Z,22.83
2022-10-10T21:34:03.270Z,20.57
2022-10-10T21:36:31.138Z,22.40
2022-10-10T21:38:59.355Z,19.98
2022-10-10T21:41:26.436Z,16.33
2022-10-10T21:43:55.974Z,13.67
2022-10-10T21:46:28.612Z,17.00
2022-10-10T21:48:58.183Z,17.57
2022-10-10T21:51:26.099Z,14.47
2022-10-10T21:53:56.667Z,20.40
2022-10-10T21:56:23.929Z,15.70
2022-10-10T21:58:50.652Z,16.87
2022-10-10T22:01:19.848Z,14.30
2022-10-10T22:03:51.814Z,16.33
2022-10-10T22:06:21.345Z,16.03
2022-10-10T22:08:49.666Z,18.20
2022-10-10T22:11:22.406Z,14.80
2022-10-10T22:13:49.515Z,14.33
2022-10-10T22:16:16.570Z,15.13
2022-10-10T22:18:43.794Z,12.50
2022-10-10T22:21:15.712Z,11.80
2022-10-10T22:23:43.514Z,14.45
2022-10-10T22:26:12.094Z,12.73
2022-10-10T22:28:39.103Z,18.13
2022-10-10T22:31:09.783Z,16.20
2022-10-10T22:33:36.786Z,11.93
2022-10-10T22:36:04.882Z,15.07
2022-10-10T22:38:31.970Z,13.80
2022-10-10T22:40:58.883Z,12.53
2022-10-10T22:43:27.145Z,17.20
2022-10-10T22:45:54.490Z,18.27
2022-10-10T22:48:21.243Z,12.10
2022-10-10T22:50:47.901Z,17.67
2022-10-10T22:53:14.528Z,12.90
2022-10-10T22:55:41.510Z,18.77
2022-10-10T22:58:08.365Z,14.77
2022-10-10T23:00:35.119Z,13.03
2022-10-10T23:03:01.782Z,14.43
2022-10-10T23:05:28.439Z,13.20
2022-10-10T23:07:55.069Z,20.13
2022-10-10T23:10:21.817Z,16.80
2022-10-10T23:12:48.518Z,15.63
2022-10-10T23:15:15.159Z,13.50
2022-10-10T23:17:41.866Z,17.30
2022-10-10T23:20:09.075Z,15.63
2022-10-10T23:22:35.690Z,20.87
2022-10-10T23:25:02.370Z,19.00
2022-10-10T23:27:28.967Z,17.50
2022-10-10T23:29:55.545Z,13.77
2022-10-10T23:32:23.404Z,16.50
2022-10-10T23:34:50.048Z,15.37
2022-10-10T23:37:16.697Z,19.47
2022-10-10T23:39:43.404Z,11.67
2022-10-10T23:42:10.033Z,19.53
2022-10-10T23:44:36.693Z,14.80
2022-10-10T23:47:03.354Z,12.73
2022-10-10T23:49:30.356Z,19.97
2022-10-10T23:51:57.011Z,13.70
2022-10-10T23:54:23.679Z,16.37
2022-10-10T23:56:50.276Z,13.73
2022-10-10T23:59:17.129Z,12.63
